sensor_id;sensor_type;location;lat;lon;timestamp;pressure;altitude;pressure_sealevel;temperature;humidity
61908;BME280;47864;52.526;19.672;2023-04-03T00:00:49;101692.78;;;1.69;100.00
61908;BME280;47864;52.526;19.672;2023-04-03T00:02:51;101696.19;;;1.71;100.00
61908;BME280;47864;52.526;19.672;2023-04-03T00:04:53;101701.84;;;1.81;100.00
61908;BME280;47864;52.526;19.672;2023-04-03T00:06:54;101692.25;;;1.61;100.00
61908;BME280;47864;52.526;19.672;2023-04-03T00:08:55;101707.50;;;1.72;100.00
61908;BME280;47864;52.526;19.672;2023-04-03T00:10:57;101708.25;;;1.74;96.43
61908;BME280;47864;52.526;19.672;2023-04-03T00:12:59;101705.56;;;1.75;99.28
61908;BME280;47864;52.526;19.672;2023-04-03T00:15:00;101705.13;;;1.66;99.06
61908;BME280;47864;52.526;19.672;2023-04-03T00:17:02;101712.84;;;1.69;100.00
61908;BME280;47864;52.526;19.672;2023-04-03T00:19:03;101718.13;;;1.67;100.00
61908;BME280;47864;52.526;19.672;2023-04-03T00:21:05;101713.34;;;1.57;100.00
61908;BME280;47864;52.526;19.672;2023-04-03T00:23:07;101712.44;;;1.58;100.00
61908;BME280;47864;52.526;19.672;2023-04-03T00:25:09;101715.53;;;1.47;99.75
61908;BME280;47864;52.526;19.672;2023-04-03T00:27:10;101711.34;;;1.63;100.00
61908;BME280;47864;52.526;19.672;2023-04-03T00:29:12;101710.44;;;1.44;98.92
61908;BME280;47864;52.526;19.672;2023-04-03T00:31:16;101696.84;;;1.36;98.34
61908;BME280;47864;52.526;19.672;2023-04-03T00:33:18;101699.13;;;1.43;97.47
61908;BME280;47864;52.526;19.672;2023-04-03T00:35:21;101708.34;;;1.52;99.49
61908;BME280;47864;52.526;19.672;2023-04-03T00:37:23;101726.59;;;1.53;95.09
61908;BME280;47864;52.526;19.672;2023-04-03T00:39:25;101720.22;;;1.59;96.99
61908;BME280;47864;52.526;19.672;2023-04-03T00:41:26;101729.31;;;1.71;96.60
61908;BME280;47864;52.526;19.672;2023-04-03T00:43:28;101725.63;;;1.75;95.43
61908;BME280;47864;52.526;19.672;2023-04-03T00:45:33;101714.81;;;1.64;94.53
61908;BME280;47864;52.526;19.672;2023-04-03T00:47:35;101723.25;;;1.70;96.20
61908;BME280;47864;52.526;19.672;2023-04-03T00:49:39;101724.81;;;1.54;97.12
61908;BME280;47864;52.526;19.672;2023-04-03T00:51:41;101733.50;;;1.55;95.06
61908;BME280;47864;52.526;19.672;2023-04-03T00:53:48;101718.69;;;1.55;96.16
61908;BME280;47864;52.526;19.672;2023-04-03T00:55:51;101698.94;;;1.28;96.12
61908;BME280;47864;52.526;19.672;2023-04-03T00:57:54;101725.09;;;1.48;96.48
61908;BME280;47864;52.526;19.672;2023-04-03T01:00:03;101725.47;;;1.39;98.75
61908;BME280;47864;52.526;19.672;2023-04-03T01:02:06;101710.72;;;1.16;97.67
61908;BME280;47864;52.526;19.672;2023-04-03T01:06:32;101730.16;;;1.31;99.07
61908;BME280;47864;52.526;19.672;2023-04-03T01:08:35;101711.25;;;1.24;97.29
61908;BME280;47864;52.526;19.672;2023-04-03T01:10:36;101717.81;;;1.14;97.22
61908;BME280;47864;52.526;19.672;2023-04-03T01:12:41;101715.25;;;1.33;98.74
61908;BME280;47864;52.526;19.672;2023-04-03T01:14:53;101741.34;;;1.34;97.52
61908;BME280;47864;52.526;19.672;2023-04-03T01:16:54;101735.25;;;1.34;97.04
61908;BME280;47864;52.526;19.672;2023-04-03T01:18:56;101724.00;;;1.11;99.25
61908;BME280;47864;52.526;19.672;2023-04-03T01:21:13;101752.59;;;1.36;97.03
61908;BME280;47864;52.526;19.672;2023-04-03T01:23:26;101741.59;;;1.28;98.22
61908;BME280;47864;52.526;19.672;2023-04-03T01:25:31;101746.09;;;1.25;98.55
61908;BME280;47864;52.526;19.672;2023-04-03T01:27:33;101703.59;;;0.99;96.17
61908;BME280;47864;52.526;19.672;2023-04-03T01:29:35;101722.66;;;1.01;96.89
61908;BME280;47864;52.526;19.672;2023-04-03T01:33:50;101706.34;;;0.96;95.32
61908;BME280;47864;52.526;19.672;2023-04-03T01:35:51;101756.53;;;1.25;96.49
61908;BME280;47864;52.526;19.672;2023-04-03T01:37:53;101760.44;;;1.36;95.16
61908;BME280;47864;52.526;19.672;2023-04-03T01:39:54;101759.09;;;1.26;92.52
61908;BME280;47864;52.526;19.672;2023-04-03T01:41:56;101757.22;;;1.08;94.10
61908;BME280;47864;52.526;19.672;2023-04-03T01:43:57;101774.13;;;1.21;92.35
61908;BME280;47864;52.526;19.672;2023-04-03T01:45:58;101762.13;;;1.15;93.97
61908;BME280;47864;52.526;19.672;2023-04-03T01:48:00;101759.94;;;1.27;92.42
61908;BME280;47864;52.526;19.672;2023-04-03T01:50:02;101762.81;;;1.21;93.24
61908;BME280;47864;52.526;19.672;2023-04-03T01:52:03;101744.25;;;1.27;93.49
61908;BME280;47864;52.526;19.672;2023-04-03T01:54:05;101778.13;;;1.30;91.46
61908;BME280;47864;52.526;19.672;2023-04-03T01:56:07;101759.28;;;1.22;93.14
61908;BME280;47864;52.526;19.672;2023-04-03T01:58:08;101762.50;;;1.28;92.36
61908;BME280;47864;52.526;19.672;2023-04-03T02:00:10;101745.28;;;1.02;93.20
61908;BME280;47864;52.526;19.672;2023-04-03T02:02:11;101776.59;;;1.24;90.38
61908;BME280;47864;52.526;19.672;2023-04-03T02:04:13;101771.72;;;1.37;90.95
61908;BME280;47864;52.526;19.672;2023-04-03T02:06:14;101757.00;;;1.14;92.30
61908;BME280;47864;52.526;19.672;2023-04-03T02:08:16;101774.59;;;1.09;92.05
61908;BME280;47864;52.526;19.672;2023-04-03T02:10:17;101774.00;;;1.02;94.40
61908;BME280;47864;52.526;19.672;2023-04-03T02:12:19;101775.50;;;1.08;92.22
61908;BME280;47864;52.526;19.672;2023-04-03T02:14:20;101784.88;;;1.13;92.04
61908;BME280;47864;52.526;19.672;2023-04-03T02:16:22;101777.41;;;1.04;92.14
61908;BME280;47864;52.526;19.672;2023-04-03T02:18:24;101762.91;;;0.97;91.89
61908;BME280;47864;52.526;19.672;2023-04-03T02:20:26;101770.78;;;0.96;92.71
61908;BME280;47864;52.526;19.672;2023-04-03T02:22:27;101776.72;;;0.99;93.44
61908;BME280;47864;52.526;19.672;2023-04-03T02:24:29;101780.38;;;1.17;95.09
61908;BME280;47864;52.526;19.672;2023-04-03T02:26:31;101774.19;;;0.98;94.82
61908;BME280;47864;52.526;19.672;2023-04-03T02:28:32;101781.72;;;1.05;97.74
61908;BME280;47864;52.526;19.672;2023-04-03T02:30:34;101784.34;;;1.05;97.73
61908;BME280;47864;52.526;19.672;2023-04-03T02:32:36;101786.75;;;1.10;95.08
61908;BME280;47864;52.526;19.672;2023-04-03T02:34:38;101787.56;;;0.90;98.43
61908;BME280;47864;52.526;19.672;2023-04-03T02:36:39;101766.94;;;0.83;97.89
61908;BME280;47864;52.526;19.672;2023-04-03T02:38:41;101781.53;;;0.88;98.34
61908;BME280;47864;52.526;19.672;2023-04-03T02:40:43;101791.69;;;0.96;96.25
61908;BME280;47864;52.526;19.672;2023-04-03T02:42:44;101785.53;;;0.75;97.40
61908;BME280;47864;52.526;19.672;2023-04-03T02:44:46;101793.50;;;0.72;97.32
61908;BME280;47864;52.526;19.672;2023-04-03T02:46:47;101772.59;;;0.72;96.27
61908;BME280;47864;52.526;19.672;2023-04-03T02:48:49;101792.47;;;0.76;95.81
61908;BME280;47864;52.526;19.672;2023-04-03T02:50:51;101790.75;;;0.75;95.80
61908;BME280;47864;52.526;19.672;2023-04-03T02:52:52;101771.47;;;0.79;95.88
61908;BME280;47864;52.526;19.672;2023-04-03T02:54:53;101791.91;;;0.68;100.00
61908;BME280;47864;52.526;19.672;2023-04-03T02:56:55;101805.50;;;0.76;97.77
61908;BME280;47864;52.526;19.672;2023-04-03T02:58:57;101791.53;;;0.77;97.81
61908;BME280;47864;52.526;19.672;2023-04-03T03:00:59;101822.78;;;0.80;99.07
61908;BME280;47864;52.526;19.672;2023-04-03T03:03:01;101796.09;;;0.72;96.59
61908;BME280;47864;52.526;19.672;2023-04-03T03:05:02;101811.72;;;0.73;97.17
61908;BME280;47864;52.526;19.672;2023-04-03T03:07:04;101811.16;;;0.65;98.08
61908;BME280;47864;52.526;19.672;2023-04-03T03:09:06;101813.13;;;0.59;96.36
61908;BME280;47864;52.526;19.672;2023-04-03T03:11:08;101828.34;;;0.71;95.80
61908;BME280;47864;52.526;19.672;2023-04-03T03:13:10;101808.59;;;0.64;97.25
61908;BME280;47864;52.526;19.672;2023-04-03T03:15:12;101808.56;;;0.65;96.67
61908;BME280;47864;52.526;19.672;2023-04-03T03:17:13;101818.44;;;0.57;99.59
61908;BME280;47864;52.526;19.672;2023-04-03T03:19:15;101821.53;;;0.67;95.44
61908;BME280;47864;52.526;19.672;2023-04-03T03:21:16;101816.19;;;0.70;95.34
61908;BME280;47864;52.526;19.672;2023-04-03T03:23:18;101826.94;;;0.62;98.03
61908;BME280;47864;52.526;19.672;2023-04-03T03:25:20;101827.19;;;0.78;97.97
61908;BME280;47864;52.526;19.672;2023-04-03T03:27:21;101824.69;;;0.75;97.79
61908;BME280;47864;52.526;19.672;2023-04-03T03:29:23;101813.78;;;0.65;97.78
61908;BME280;47864;52.526;19.672;2023-04-03T03:31:24;101824.34;;;0.84;98.45
61908;BME280;47864;52.526;19.672;2023-04-03T03:33:26;101829.16;;;0.73;98.61
61908;BME280;47864;52.526;19.672;2023-04-03T03:35:27;101823.03;;;0.74;98.72
61908;BME280;47864;52.526;19.672;2023-04-03T03:37:29;101810.66;;;0.32;99.91
61908;BME280;47864;52.526;19.672;2023-04-03T03:39:30;101817.50;;;0.58;98.89
61908;BME280;47864;52.526;19.672;2023-04-03T03:41:32;101812.91;;;0.65;97.67
61908;BME280;47864;52.526;19.672;2023-04-03T03:43:33;101834.53;;;0.68;98.79
61908;BME280;47864;52.526;19.672;2023-04-03T03:45:35;101830.25;;;0.43;100.00
61908;BME280;47864;52.526;19.672;2023-04-03T03:47:36;101831.50;;;0.57;97.99
61908;BME280;47864;52.526;19.672;2023-04-03T03:49:38;101830.91;;;0.72;98.09
61908;BME280;47864;52.526;19.672;2023-04-03T03:51:40;101829.13;;;0.50;100.00
61908;BME280;47864;52.526;19.672;2023-04-03T03:53:41;101811.84;;;0.47;97.74
61908;BME280;47864;52.526;19.672;2023-04-03T03:55:43;101847.31;;;0.53;99.38
61908;BME280;47864;52.526;19.672;2023-04-03T03:57:44;101850.59;;;0.58;99.35
61908;BME280;47864;52.526;19.672;2023-04-03T03:59:46;101845.22;;;0.62;100.00
61908;BME280;47864;52.526;19.672;2023-04-03T04:01:48;101850.81;;;0.52;100.00
61908;BME280;47864;52.526;19.672;2023-04-03T04:03:49;101855.88;;;0.56;100.00
61908;BME280;47864;52.526;19.672;2023-04-03T04:05:51;101849.38;;;0.43;100.00
61908;BME280;47864;52.526;19.672;2023-04-03T04:07:52;101843.59;;;0.58;100.00
61908;BME280;47864;52.526;19.672;2023-04-03T04:09:54;101859.41;;;0.55;100.00
61908;BME280;47864;52.526;19.672;2023-04-03T04:11:56;101866.03;;;0.64;100.00
61908;BME280;47864;52.526;19.672;2023-04-03T04:13:57;101864.72;;;0.52;100.00
61908;BME280;47864;52.526;19.672;2023-04-03T04:15:59;101866.19;;;0.36;100.00
61908;BME280;47864;52.526;19.672;2023-04-03T04:18:00;101867.56;;;0.46;100.00
61908;BME280;47864;52.526;19.672;2023-04-03T04:20:03;101847.88;;;0.37;100.00
61908;BME280;47864;52.526;19.672;2023-04-03T04:22:05;101857.50;;;0.35;100.00
61908;BME280;47864;52.526;19.672;2023-04-03T04:24:07;101858.94;;;0.44;100.00
61908;BME280;47864;52.526;19.672;2023-04-03T04:26:09;101859.81;;;0.43;100.00
61908;BME280;47864;52.526;19.672;2023-04-03T04:28:11;101874.88;;;0.36;100.00
61908;BME280;47864;52.526;19.672;2023-04-03T04:30:13;101851.94;;;0.21;100.00
61908;BME280;47864;52.526;19.672;2023-04-03T04:32:15;101868.16;;;0.29;100.00
61908;BME280;47864;52.526;19.672;2023-04-03T04:34:17;101868.53;;;0.19;100.00
61908;BME280;47864;52.526;19.672;2023-04-03T04:36:18;101870.25;;;0.20;100.00
61908;BME280;47864;52.526;19.672;2023-04-03T04:38:20;101848.25;;;0.27;100.00
61908;BME280;47864;52.526;19.672;2023-04-03T04:40:22;101849.53;;;0.15;100.00
61908;BME280;47864;52.526;19.672;2023-04-03T04:42:23;101857.94;;;0.23;100.00
61908;BME280;47864;52.526;19.672;2023-04-03T04:44:25;101869.31;;;0.46;100.00
61908;BME280;47864;52.526;19.672;2023-04-03T04:46:27;101862.50;;;0.42;100.00
61908;BME280;47864;52.526;19.672;2023-04-03T04:48:29;101874.59;;;0.44;100.00
61908;BME280;47864;52.526;19.672;2023-04-03T04:50:33;101883.03;;;0.51;100.00
61908;BME280;47864;52.526;19.672;2023-04-03T04:52:34;101863.69;;;0.33;100.00
61908;BME280;47864;52.526;19.672;2023-04-03T04:54:36;101867.66;;;0.66;100.00
61908;BME280;47864;52.526;19.672;2023-04-03T04:56:37;101864.63;;;1.87;95.71
61908;BME280;47864;52.526;19.672;2023-04-03T04:58:39;101873.69;;;2.79;87.42
61908;BME280;47864;52.526;19.672;2023-04-03T05:00:40;101881.22;;;2.86;84.57
61908;BME280;47864;52.526;19.672;2023-04-03T05:02:42;101883.50;;;2.74;86.73
61908;BME280;47864;52.526;19.672;2023-04-03T05:04:44;101869.03;;;3.04;83.17
61908;BME280;47864;52.526;19.672;2023-04-03T05:06:46;101887.25;;;3.43;79.82
61908;BME280;47864;52.526;19.672;2023-04-03T05:08:47;101891.66;;;3.78;82.40
61908;BME280;47864;52.526;19.672;2023-04-03T05:10:49;101894.19;;;3.80;80.75
61908;BME280;47864;52.526;19.672;2023-04-03T05:12:50;101898.72;;;4.78;80.06
61908;BME280;47864;52.526;19.672;2023-04-03T05:14:52;101893.59;;;4.92;74.28
61908;BME280;47864;52.526;19.672;2023-04-03T05:16:54;101874.38;;;5.53;70.21
61908;BME280;47864;52.526;19.672;2023-04-03T05:18:55;101894.88;;;4.35;75.37
61908;BME280;47864;52.526;19.672;2023-04-03T05:20:57;101892.88;;;4.23;75.67
61908;BME280;47864;52.526;19.672;2023-04-03T05:22:58;101878.09;;;5.35;70.83
61908;BME280;47864;52.526;19.672;2023-04-03T05:25:00;101888.28;;;5.25;71.97
61908;BME280;47864;52.526;19.672;2023-04-03T05:27:01;101892.75;;;6.44;68.86
61908;BME280;47864;52.526;19.672;2023-04-03T05:29:03;101901.03;;;5.63;68.91
61908;BME280;47864;52.526;19.672;2023-04-03T05:31:05;101896.53;;;4.53;73.72
61908;BME280;47864;52.526;19.672;2023-04-03T05:33:06;101892.25;;;5.01;68.66
61908;BME280;47864;52.526;19.672;2023-04-03T05:35:08;101903.63;;;5.49;68.59
61908;BME280;47864;52.526;19.672;2023-04-03T05:37:10;101905.03;;;5.70;65.44
61908;BME280;47864;52.526;19.672;2023-04-03T05:39:12;101886.66;;;5.23;66.41
61908;BME280;47864;52.526;19.672;2023-04-03T05:41:14;101879.34;;;4.96;72.03
61908;BME280;47864;52.526;19.672;2023-04-03T05:43:16;101898.16;;;6.13;62.96
61908;BME280;47864;52.526;19.672;2023-04-03T05:45:18;101903.66;;;4.84;67.29
61908;BME280;47864;52.526;19.672;2023-04-03T05:47:19;101896.88;;;4.96;66.09
61908;BME280;47864;52.526;19.672;2023-04-03T05:49:21;101908.88;;;5.49;67.62
61908;BME280;47864;52.526;19.672;2023-04-03T05:51:24;101910.66;;;5.17;66.07
61908;BME280;47864;52.526;19.672;2023-04-03T05:53:28;101912.75;;;4.11;68.74
61908;BME280;47864;52.526;19.672;2023-04-03T05:55:30;101904.38;;;5.19;65.66
61908;BME280;47864;52.526;19.672;2023-04-03T05:57:32;101901.00;;;5.94;60.85
61908;BME280;47864;52.526;19.672;2023-04-03T05:59:34;101905.38;;;5.64;64.59
61908;BME280;47864;52.526;19.672;2023-04-03T06:01:35;101909.47;;;5.38;63.38
61908;BME280;47864;52.526;19.672;2023-04-03T06:03:37;101923.97;;;5.92;61.27
61908;BME280;47864;52.526;19.672;2023-04-03T06:05:40;101900.88;;;5.66;65.84
61908;BME280;47864;52.526;19.672;2023-04-03T06:07:42;101896.75;;;5.15;62.99
61908;BME280;47864;52.526;19.672;2023-04-03T06:09:43;101923.97;;;6.22;60.04
61908;BME280;47864;52.526;19.672;2023-04-03T06:11:45;101926.41;;;5.80;59.16
61908;BME280;47864;52.526;19.672;2023-04-03T06:13:46;101923.38;;;5.09;60.34
61908;BME280;47864;52.526;19.672;2023-04-03T06:15:48;101935.78;;;5.54;60.77
61908;BME280;47864;52.526;19.672;2023-04-03T06:17:49;101923.31;;;5.42;61.79
61908;BME280;47864;52.526;19.672;2023-04-03T06:19:51;101912.25;;;5.66;59.44
61908;BME280;47864;52.526;19.672;2023-04-03T06:21:53;101922.25;;;4.97;59.54
61908;BME280;47864;52.526;19.672;2023-04-03T06:23:54;101929.16;;;4.49;60.72
61908;BME280;47864;52.526;19.672;2023-04-03T06:25:56;101934.56;;;5.12;59.80
61908;BME280;47864;52.526;19.672;2023-04-03T06:27:57;101935.66;;;4.92;61.14
61908;BME280;47864;52.526;19.672;2023-04-03T06:29:59;101928.81;;;4.73;59.92
61908;BME280;47864;52.526;19.672;2023-04-03T06:32:00;101940.63;;;4.81;60.70
61908;BME280;47864;52.526;19.672;2023-04-03T06:34:03;101951.13;;;4.48;62.79
61908;BME280;47864;52.526;19.672;2023-04-03T06:36:05;101940.69;;;4.30;61.96
61908;BME280;47864;52.526;19.672;2023-04-03T06:38:06;101954.19;;;4.22;62.94
61908;BME280;47864;52.526;19.672;2023-04-03T06:40:17;101944.72;;;5.03;60.08
61908;BME280;47864;52.526;19.672;2023-04-03T06:42:19;101941.13;;;5.36;58.96
61908;BME280;47864;52.526;19.672;2023-04-03T06:44:21;101958.19;;;5.61;58.62
61908;BME280;47864;52.526;19.672;2023-04-03T06:46:23;101957.50;;;5.26;56.00
61908;BME280;47864;52.526;19.672;2023-04-03T06:48:25;101953.03;;;4.95;59.67
61908;BME280;47864;52.526;19.672;2023-04-03T06:50:27;101983.53;;;5.15;56.31
61908;BME280;47864;52.526;19.672;2023-04-03T06:52:28;101979.16;;;4.31;56.60
61908;BME280;47864;52.526;19.672;2023-04-03T06:54:30;101956.03;;;4.72;58.16
61908;BME280;47864;52.526;19.672;2023-04-03T06:56:31;101979.97;;;4.83;55.72
61908;BME280;47864;52.526;19.672;2023-04-03T06:58:34;101978.69;;;4.22;59.09
61908;BME280;47864;52.526;19.672;2023-04-03T07:00:35;101952.88;;;4.48;56.71
61908;BME280;47864;52.526;19.672;2023-04-03T07:02:37;101990.38;;;4.51;55.36
61908;BME280;47864;52.526;19.672;2023-04-03T07:04:39;101953.41;;;4.72;55.30
61908;BME280;47864;52.526;19.672;2023-04-03T07:06:40;101961.63;;;4.31;57.25
61908;BME280;47864;52.526;19.672;2023-04-03T07:08:42;101985.81;;;4.55;55.36
61908;BME280;47864;52.526;19.672;2023-04-03T07:10:44;101960.38;;;4.38;57.52
61908;BME280;47864;52.526;19.672;2023-04-03T07:12:46;101973.88;;;4.82;55.97
61908;BME280;47864;52.526;19.672;2023-04-03T07:14:48;101965.94;;;5.00;56.26
61908;BME280;47864;52.526;19.672;2023-04-03T07:16:49;101987.19;;;4.62;57.69
61908;BME280;47864;52.526;19.672;2023-04-03T07:18:51;101973.91;;;4.48;58.26
61908;BME280;47864;52.526;19.672;2023-04-03T07:20:52;101988.53;;;4.19;57.01
61908;BME280;47864;52.526;19.672;2023-04-03T07:22:54;101974.50;;;3.65;60.84
61908;BME280;47864;52.526;19.672;2023-04-03T07:24:55;101965.72;;;3.66;61.00
61908;BME280;47864;52.526;19.672;2023-04-03T07:26:57;101995.25;;;4.42;58.33
61908;BME280;47864;52.526;19.672;2023-04-03T07:28:58;101991.06;;;4.38;58.21
61908;BME280;47864;52.526;19.672;2023-04-03T07:31:06;101995.28;;;4.06;60.04
61908;BME280;47864;52.526;19.672;2023-04-03T07:33:08;102015.16;;;4.29;59.34
61908;BME280;47864;52.526;19.672;2023-04-03T07:35:12;101985.72;;;4.22;59.41
61908;BME280;47864;52.526;19.672;2023-04-03T07:37:14;101990.91;;;4.58;58.16
61908;BME280;47864;52.526;19.672;2023-04-03T07:39:15;102005.19;;;4.70;57.53
61908;BME280;47864;52.526;19.672;2023-04-03T07:41:18;101999.13;;;5.02;56.77
61908;BME280;47864;52.526;19.672;2023-04-03T07:43:22;101991.56;;;5.12;56.63
61908;BME280;47864;52.526;19.672;2023-04-03T07:45:24;101985.53;;;5.27;57.12
61908;BME280;47864;52.526;19.672;2023-04-03T07:47:25;102002.25;;;5.42;59.35
61908;BME280;47864;52.526;19.672;2023-04-03T07:49:27;102005.06;;;5.54;56.73
61908;BME280;47864;52.526;19.672;2023-04-03T07:51:28;101989.88;;;5.11;58.32
61908;BME280;47864;52.526;19.672;2023-04-03T07:53:30;101991.22;;;4.69;56.60
61908;BME280;47864;52.526;19.672;2023-04-03T07:55:32;102015.94;;;4.48;58.88
61908;BME280;47864;52.526;19.672;2023-04-03T07:57:35;102004.84;;;4.60;57.55
61908;BME280;47864;52.526;19.672;2023-04-03T07:59:37;102006.13;;;4.17;58.40
61908;BME280;47864;52.526;19.672;2023-04-03T08:01:38;101987.88;;;4.31;58.39
61908;BME280;47864;52.526;19.672;2023-04-03T08:03:40;101994.28;;;4.08;58.62
61908;BME280;47864;52.526;19.672;2023-04-03T08:05:43;102014.09;;;3.97;58.67
61908;BME280;47864;52.526;19.672;2023-04-03T08:07:45;101987.44;;;3.87;58.43
61908;BME280;47864;52.526;19.672;2023-04-03T08:09:47;102024.56;;;4.15;62.37
61908;BME280;47864;52.526;19.672;2023-04-03T08:11:49;101989.88;;;3.73;62.35
61908;BME280;47864;52.526;19.672;2023-04-03T08:13:50;101999.19;;;3.97;60.95
61908;BME280;47864;52.526;19.672;2023-04-03T08:15:53;102001.84;;;4.14;59.67
61908;BME280;47864;52.526;19.672;2023-04-03T08:17:55;102025.72;;;4.10;60.34
61908;BME280;47864;52.526;19.672;2023-04-03T08:19:57;101987.34;;;4.25;61.52
61908;BME280;47864;52.526;19.672;2023-04-03T08:21:58;102014.88;;;3.99;60.40
61908;BME280;47864;52.526;19.672;2023-04-03T08:24:00;102013.97;;;4.00;59.35
61908;BME280;47864;52.526;19.672;2023-04-03T08:26:09;101995.28;;;4.06;59.04
61908;BME280;47864;52.526;19.672;2023-04-03T08:28:11;102028.28;;;4.11;59.02
61908;BME280;47864;52.526;19.672;2023-04-03T08:30:13;102022.09;;;4.30;58.74
61908;BME280;47864;52.526;19.672;2023-04-03T08:32:15;102004.41;;;4.16;60.31
61908;BME280;47864;52.526;19.672;2023-04-03T08:34:17;102002.00;;;4.29;59.55
61908;BME280;47864;52.526;19.672;2023-04-03T08:38:21;102001.53;;;4.20;58.32
61908;BME280;47864;52.526;19.672;2023-04-03T08:40:23;102024.81;;;4.45;58.08
61908;BME280;47864;52.526;19.672;2023-04-03T08:44:52;102019.88;;;4.91;57.77
61908;BME280;47864;52.526;19.672;2023-04-03T08:49:52;102027.78;;;4.74;55.67
61908;BME280;47864;52.526;19.672;2023-04-03T08:51:55;102034.09;;;4.70;55.89
61908;BME280;47864;52.526;19.672;2023-04-03T08:54:04;102035.66;;;4.39;57.20
61908;BME280;47864;52.526;19.672;2023-04-03T08:56:08;102026.13;;;4.71;59.73
61908;BME280;47864;52.526;19.672;2023-04-03T08:58:20;102039.00;;;4.77;57.83
61908;BME280;47864;52.526;19.672;2023-04-03T09:00:24;102016.78;;;4.83;54.68
61908;BME280;47864;52.526;19.672;2023-04-03T09:02:34;102024.91;;;5.11;56.65
61908;BME280;47864;52.526;19.672;2023-04-03T09:04:41;102014.16;;;5.16;55.72
61908;BME280;47864;52.526;19.672;2023-04-03T09:06:45;102019.78;;;4.92;55.17
61908;BME280;47864;52.526;19.672;2023-04-03T09:09:15;102029.47;;;4.57;55.86
61908;BME280;47864;52.526;19.672;2023-04-03T09:13:26;102028.69;;;4.90;56.45
61908;BME280;47864;52.526;19.672;2023-04-03T09:15:30;102030.00;;;4.81;54.00
61908;BME280;47864;52.526;19.672;2023-04-03T09:18:37;102034.66;;;4.93;53.98
61908;BME280;47864;52.526;19.672;2023-04-03T09:22:59;102032.22;;;5.06;53.81
61908;BME280;47864;52.526;19.672;2023-04-03T09:25:23;102030.31;;;4.92;51.42
61908;BME280;47864;52.526;19.672;2023-04-03T09:27:22;102023.38;;;4.74;52.21
61908;BME280;47864;52.526;19.672;2023-04-03T09:29:24;102020.47;;;5.29;52.32
61908;BME280;47864;52.526;19.672;2023-04-03T09:31:46;102016.25;;;4.93;53.19
61908;BME280;47864;52.526;19.672;2023-04-03T09:33:51;102016.06;;;4.96;52.70
61908;BME280;47864;52.526;19.672;2023-04-03T09:35:54;102001.66;;;5.52;52.01
61908;BME280;47864;52.526;19.672;2023-04-03T09:38:00;102023.06;;;5.78;52.34
61908;BME280;47864;52.526;19.672;2023-04-03T09:40:03;102015.66;;;5.37;53.54
61908;BME280;47864;52.526;19.672;2023-04-03T09:42:13;102022.41;;;5.90;52.49
61908;BME280;47864;52.526;19.672;2023-04-03T09:44:25;102021.03;;;5.67;48.82
61908;BME280;47864;52.526;19.672;2023-04-03T09:46:32;102019.97;;;5.38;50.98
61908;BME280;47864;52.526;19.672;2023-04-03T09:48:34;102004.47;;;5.49;49.05
61908;BME280;47864;52.526;19.672;2023-04-03T09:50:36;102034.28;;;5.17;48.10
61908;BME280;47864;52.526;19.672;2023-04-03T09:52:38;102017.19;;;4.75;49.41
61908;BME280;47864;52.526;19.672;2023-04-03T09:54:40;101998.06;;;5.22;49.61
61908;BME280;47864;52.526;19.672;2023-04-03T09:56:49;102011.88;;;5.74;50.20
61908;BME280;47864;52.526;19.672;2023-04-03T10:00:55;102017.22;;;5.88;51.77
61908;BME280;47864;52.526;19.672;2023-04-03T10:02:56;102006.34;;;5.94;51.41
61908;BME280;47864;52.526;19.672;2023-04-03T10:04:58;102023.69;;;5.18;51.07
61908;BME280;47864;52.526;19.672;2023-04-03T10:07:35;102025.59;;;4.65;52.13
61908;BME280;47864;52.526;19.672;2023-04-03T10:09:36;102023.97;;;4.79;50.67
61908;BME280;47864;52.526;19.672;2023-04-03T10:11:38;102027.47;;;5.46;51.21
61908;BME280;47864;52.526;19.672;2023-04-03T10:14:01;102020.06;;;5.52;52.15
61908;BME280;47864;52.526;19.672;2023-04-03T10:16:07;102014.78;;;5.36;51.29
61908;BME280;47864;52.526;19.672;2023-04-03T10:19:02;102027.50;;;4.95;51.88
61908;BME280;47864;52.526;19.672;2023-04-03T10:20:47;102012.19;;;6.15;50.24
61908;BME280;47864;52.526;19.672;2023-04-03T10:23:05;102020.53;;;5.76;51.11
61908;BME280;47864;52.526;19.672;2023-04-03T10:25:44;102027.19;;;5.34;50.10
61908;BME280;47864;52.526;19.672;2023-04-03T10:27:53;102015.94;;;5.64;48.61
61908;BME280;47864;52.526;19.672;2023-04-03T10:30:29;102012.38;;;5.81;48.56
61908;BME280;47864;52.526;19.672;2023-04-03T10:32:54;102010.81;;;5.77;50.10
61908;BME280;47864;52.526;19.672;2023-04-03T10:40:20;102007.91;;;6.28;49.63
61908;BME280;47864;52.526;19.672;2023-04-03T10:42:44;102004.06;;;5.88;50.71
61908;BME280;47864;52.526;19.672;2023-04-03T10:46:52;101994.25;;;4.94;50.51
61908;BME280;47864;52.526;19.672;2023-04-03T10:49:03;101986.38;;;5.43;51.44
61908;BME280;47864;52.526;19.672;2023-04-03T10:51:28;102012.97;;;5.21;49.91
61908;BME280;47864;52.526;19.672;2023-04-03T10:53:44;102003.69;;;5.47;49.27
61908;BME280;47864;52.526;19.672;2023-04-03T10:57:53;101972.28;;;5.76;49.11
61908;BME280;47864;52.526;19.672;2023-04-03T11:00:06;101989.94;;;5.73;47.29
61908;BME280;47864;52.526;19.672;2023-04-03T11:02:16;101997.75;;;6.06;47.68
61908;BME280;47864;52.526;19.672;2023-04-03T11:04:26;101989.09;;;6.34;46.99
61908;BME280;47864;52.526;19.672;2023-04-03T11:06:36;101983.50;;;6.40;48.14
61908;BME280;47864;52.526;19.672;2023-04-03T11:10:48;101970.56;;;7.08;46.11
61908;BME280;47864;52.526;19.672;2023-04-03T11:12:56;101987.69;;;6.59;46.81
61908;BME280;47864;52.526;19.672;2023-04-03T11:15:02;101989.75;;;6.68;43.97